Time;durP1;ratioP1;P1;durP2;ratioP2;P2;SDS_P1;SDS_P2;PMS_P1;PMS_P2;Temp;Humidity;BMP_temperature;BMP_pressure;BME280_temperature;BME280_humidity;BME280_pressure;Samples;Min_cycle;Max_cycle;Signal;HPM_P1;HPM_P2
2021/12/10 10:44:48;;;;;;;7.30;2.42;;;;;;;;;;5132875;27;20133;-71
2021/12/10 10:47:14;;;;;;;7.55;2.25;;;;;;;;;;5108191;28;20031;-71
2021/12/10 10:49:42;;;;;;;15.18;2.97;;;;;;;;;;5108362;28;20051;-71
2021/12/10 10:52:21;;;;;;;9.43;2.20;;;;;;;;;;5104911;28;20048;-71
2021/12/10 10:54:48;;;;;;;10.20;3.00;;;;;;;;;;5106756;28;20031;-71
2021/12/10 10:57:24;;;;;;;7.78;2.40;;;;;;;;;;5112598;28;20027;-71
2021/12/10 10:59:54;;;;;;;9.32;2.25;;;;;;;;;;5115499;28;20034;-72
2021/12/10 11:02:20;;;;;;;9.85;1.77;;;;;;;;;;5116187;28;20063;-71
2021/12/10 11:04:49;;;;;;;15.43;2.97;;;;;;;;;;5112007;28;20023;-71
2021/12/10 11:07:15;;;;;;;5.50;1.77;;;;;;;;;;5110615;28;20103;-72
2021/12/10 11:09:44;;;;;;;8.95;1.80;;;;;;;;;;5112380;28;20482;-71
2021/12/10 11:12:14;;;;;;;13.25;2.88;;;;;;;;;;5110090;28;20024;-71
2021/12/10 11:14:45;;;;;;;17.63;3.47;;;;;;;;;;5116358;28;20517;-71
2021/12/10 11:17:29;;;;;;;7.90;2.55;;;;;;;;;;5113746;28;20032;-71
2021/12/10 11:20:08;;;;;;;13.88;2.33;;;;;;;;;;5110492;28;20107;-71
2021/12/10 11:22:45;;;;;;;10.00;2.55;;;;;;;;;;5104907;28;20015;-72
2021/12/10 11:25:13;;;;;;;11.90;2.30;;;;;;;;;;5109484;28;20024;-72
2021/12/10 11:27:41;;;;;;;10.43;2.70;;;;;;;;;;5110011;28;20491;-71
2021/12/10 11:30:07;;;;;;;10.73;2.50;;;;;;;;;;5114260;28;20032;-71
2021/12/10 11:32:39;;;;;;;9.88;2.33;;;;;;;;;;5116999;28;20028;-71
2021/12/10 11:35:11;;;;;;;16.60;2.80;;;;;;;;;;5109193;28;20020;-71
2021/12/10 11:38:14;;;;;;;10.38;2.42;;;;;;;;;;5110340;28;20140;-71
2021/12/10 11:40:52;;;;;;;17.02;6.05;;;;;;;;;;5011808;28;20472;-71
2021/12/10 11:45:52;;;;;;;15.52;3.03;;;;;;;;;;5014861;28;20030;-71
2021/12/10 11:48:26;;;;;;;13.25;3.00;;;;;;;;;;5009238;28;20042;-72
2021/12/10 11:50:58;;;;;;;12.82;3.40;;;;;;;;;;5017090;28;20029;-71
2021/12/10 11:53:24;;;;;;;10.38;2.90;;;;;;;;;;5014151;28;20417;-71
2021/12/10 11:55:56;;;;;;;11.65;3.88;;;;;;;;;;5001471;28;20038;-71
2021/12/10 11:58:22;;;;;;;10.20;3.40;;;;;;;;;;4997109;28;20494;-71
2021/12/10 12:00:50;;;;;;;11.93;3.85;;;;;;;;;;5000615;28;20049;-71
2021/12/10 12:03:16;;;;;;;12.48;3.22;;;;;;;;;;5003623;28;20480;-71
2021/12/10 12:05:44;;;;;;;12.85;2.67;;;;;;;;;;5000348;28;20164;-71
2021/12/10 12:08:12;;;;;;;10.60;2.75;;;;;;;;;;5000583;28;20072;-71
2021/12/10 12:10:43;;;;;;;12.95;2.67;;;;;;;;;;4993001;28;20088;-71
2021/12/10 12:13:24;;;;;;;10.38;3.13;;;;;;;;;;4999522;28;20030;-71
2021/12/10 12:15:50;;;;;;;;;;;;;;;;;;5095919;28;20028;-71
2021/12/10 12:18:25;;;;;;;14.77;4.82;;;;;;;;;;5102051;28;20026;-72
2021/12/10 12:20:56;;;;;;;19.13;4.90;;;;;;;;;;5099081;28;20032;-71
2021/12/10 12:26:13;;;;;;;;;;;;;;;;;;5101849;28;20027;-72
2021/12/10 12:28:44;;;;;;;13.88;3.90;;;;;;;;;;5097488;28;19946;-71
2021/12/10 12:31:13;;;;;;;11.57;3.00;;;;;;;;;;5096113;28;20031;-71
2021/12/10 12:33:57;;;;;;;9.48;2.97;;;;;;;;;;5099588;28;20792;-71
2021/12/10 12:36:25;;;;;;;10.77;3.30;;;;;;;;;;5092710;28;20052;-71
2021/12/10 12:38:51;;;;;;;12.38;3.08;;;;;;;;;;5100379;28;20572;-71
2021/12/10 12:41:20;;;;;;;12.00;2.90;;;;;;;;;;5097920;28;20026;-70
2021/12/10 12:43:48;;;;;;;18.15;5.43;;;;;;;;;;5096149;28;20059;-71
2021/12/10 12:46:14;;;;;;;13.43;3.78;;;;;;;;;;5091188;28;20069;-71
2021/12/10 12:48:54;;;;;;;69.68;31.90;;;;;;;;;;5097730;28;20101;-71
2021/12/10 12:51:21;;;;;;;76.07;41.25;;;;;;;;;;5097264;28;20013;-70
2021/12/10 12:53:48;;;;;;;49.22;25.83;;;;;;;;;;5100085;28;20068;-71
2021/12/10 12:56:15;;;;;;;46.20;23.42;;;;;;;;;;5098597;28;20024;-71
2021/12/10 12:59:08;;;;;;;50.97;28.85;;;;;;;;;;5092834;28;20471;-71
2021/12/10 13:01:36;;;;;;;62.05;35.40;;;;;;;;;;5088626;28;20073;-72
2021/12/10 13:04:05;;;;;;;61.22;30.58;;;;;;;;;;5089507;28;20561;-71
2021/12/10 13:06:51;;;;;;;71.90;35.58;;;;;;;;;;5088697;28;20433;-72
2021/12/10 13:09:28;;;;;;;93.97;48.17;;;;;;;;;;5092924;28;20079;-71
2021/12/10 13:12:03;;;;;;;97.75;46.47;;;;;;;;;;5098687;28;20122;-72
2021/12/10 13:14:37;;;;;;;202.07;98.80;;;;;;;;;;5100545;28;20031;-72
2021/12/10 13:17:11;;;;;;;241.50;120.30;;;;;;;;;;5096538;28;20444;-72
2021/12/10 13:19:37;;;;;;;414.45;274.38;;;;;;;;;;5089639;28;20043;-72
2021/12/10 13:22:08;;;;;;;134.65;77.97;;;;;;;;;;5090219;28;20015;-71
2021/12/10 13:24:35;;;;;;;85.78;43.80;;;;;;;;;;5089035;28;20040;-73
2021/12/10 13:27:01;;;;;;;50.42;24.77;;;;;;;;;;5098076;28;20434;-72
2021/12/10 13:29:28;;;;;;;37.53;16.90;;;;;;;;;;5099685;28;20077;-72
2021/12/10 13:31:55;;;;;;;32.35;15.35;;;;;;;;;;5093355;28;20043;-72
2021/12/10 13:34:21;;;;;;;24.40;10.43;;;;;;;;;;5095476;28;20020;-72
2021/12/10 13:36:48;;;;;;;87.30;42.30;;;;;;;;;;5070747;28;20078;-72
2021/12/10 13:39:15;;;;;;;497.80;259.13;;;;;;;;;;5080115;28;20032;-72
2021/12/10 13:41:42;;;;;;;493.40;317.67;;;;;;;;;;5098455;28;20407;-72
2021/12/10 13:44:25;;;;;;;190.98;105.18;;;;;;;;;;5093705;28;20048;-71
2021/12/10 13:46:53;;;;;;;93.43;48.83;;;;;;;;;;5094119;28;20032;-73
2021/12/10 13:49:20;;;;;;;49.75;26.20;;;;;;;;;;5093924;28;20071;-72
2021/12/10 13:51:48;;;;;;;39.47;18.58;;;;;;;;;;5089582;28;20020;-73
2021/12/10 13:54:22;;;;;;;20.60;10.05;;;;;;;;;;5084983;28;20024;-72
2021/12/10 13:56:51;;;;;;;25.88;11.65;;;;;;;;;;5070992;28;20075;-72
2021/12/10 13:59:21;;;;;;;24.15;8.55;;;;;;;;;;5081122;28;20056;-71
2021/12/10 14:01:48;;;;;;;19.65;6.10;;;;;;;;;;5081850;28;20033;-73
2021/12/10 14:04:17;;;;;;;12.32;4.35;;;;;;;;;;5079757;28;20040;-72
2021/12/10 14:06:46;;;;;;;11.35;3.38;;;;;;;;;;5081273;28;20028;-72
2021/12/10 14:09:35;;;;;;;11.38;2.70;;;;;;;;;;5082285;28;20083;-72
2021/12/10 14:12:16;;;;;;;11.93;4.00;;;;;;;;;;5081017;28;20055;-72
2021/12/10 14:14:44;;;;;;;12.80;4.50;;;;;;;;;;5079863;28;20475;-72
2021/12/10 14:17:13;;;;;;;12.57;3.28;;;;;;;;;;5084178;28;20107;-72
2021/12/10 14:19:46;;;;;;;11.02;4.22;;;;;;;;;;5080425;28;20157;-72
2021/12/10 14:22:13;;;;;;;15.25;4.95;;;;;;;;;;5079148;28;20028;-72
2021/12/10 14:24:51;;;;;;;10.10;3.30;;;;;;;;;;5081541;28;20460;-72
2021/12/10 14:27:23;;;;;;;8.02;2.70;;;;;;;;;;5081399;28;20029;-71
2021/12/10 14:30:08;;;;;;;9.45;2.67;;;;;;;;;;5083658;28;20039;-72
2021/12/10 14:32:35;;;;;;;3.85;2.08;;;;;;;;;;5082431;28;20080;-72
2021/12/10 14:35:05;;;;;;;7.13;2.10;;;;;;;;;;5079518;28;20019;-72
2021/12/10 14:37:46;;;;;;;4.80;2.17;;;;;;;;;;5081932;28;20049;-72
2021/12/10 14:40:13;;;;;;;9.05;1.80;;;;;;;;;;5087043;28;20076;-72
2021/12/10 14:42:39;;;;;;;6.43;1.40;;;;;;;;;;5094038;28;20051;-71
2021/12/10 14:45:08;;;;;;;8.13;2.17;;;;;;;;;;5095206;28;20028;-72
2021/12/10 14:47:34;;;;;;;6.95;1.60;;;;;;;;;;5087763;28;20046;-72
2021/12/10 14:50:02;;;;;;;8.70;2.05;;;;;;;;;;5090824;28;20020;-72
2021/12/10 14:52:33;;;;;;;10.07;2.03;;;;;;;;;;5095162;28;20426;-72
2021/12/10 14:55:04;;;;;;;11.63;2.22;;;;;;;;;;5091079;28;20028;-72
2021/12/10 14:57:45;;;;;;;7.47;1.60;;;;;;;;;;5094270;28;20525;-71
2021/12/10 15:00:36;;;;;;;9.25;1.85;;;;;;;;;;5094720;28;20032;-72
2021/12/10 15:03:07;;;;;;;7.50;2.15;;;;;;;;;;5095694;28;20039;-72
2021/12/10 15:05:33;;;;;;;9.93;2.83;;;;;;;;;;5098289;28;20047;-72
2021/12/10 15:07:59;;;;;;;12.70;3.40;;;;;;;;;;5088880;28;20024;-71
2021/12/10 15:10:39;;;;;;;10.45;2.78;;;;;;;;;;5091796;28;20064;-72
2021/12/10 15:13:14;;;;;;;8.20;2.88;;;;;;;;;;5088212;28;20101;-72
2021/12/10 15:15:58;;;;;;;10.35;2.30;;;;;;;;;;5086881;28;20119;-72
2021/12/10 15:18:36;;;;;;;8.43;1.98;;;;;;;;;;5091651;28;20020;-72
2021/12/10 15:21:20;;;;;;;15.77;2.97;;;;;;;;;;5095038;28;20036;-72
2021/12/10 15:23:55;;;;;;;8.80;1.55;;;;;;;;;;5095380;28;20430;-72
2021/12/10 15:26:23;;;;;;;9.73;1.58;;;;;;;;;;5094737;28;20031;-72
2021/12/10 15:28:49;;;;;;;12.98;1.70;;;;;;;;;;5090054;28;20391;-72
2021/12/10 15:31:15;;;;;;;11.80;2.40;;;;;;;;;;5094298;28;20141;-72
2021/12/10 15:33:41;;;;;;;12.23;2.60;;;;;;;;;;5096479;28;20020;-72
2021/12/10 15:36:08;;;;;;;8.85;1.42;;;;;;;;;;5098132;28;20035;-72
2021/12/10 15:38:40;;;;;;;9.65;2.30;;;;;;;;;;5096549;28;20339;-72
2021/12/10 15:41:26;;;;;;;10.55;2.38;;;;;;;;;;5095893;28;20085;-72
2021/12/10 15:43:55;;;;;;;14.18;2.78;;;;;;;;;;5093696;28;20044;-72
2021/12/10 15:46:27;;;;;;;13.50;3.50;;;;;;;;;;5095313;28;20606;-73
2021/12/10 15:48:55;;;;;;;10.15;2.28;;;;;;;;;;5095213;28;20044;-72
2021/12/10 15:51:23;;;;;;;10.43;2.00;;;;;;;;;;5092563;28;20020;-71
2021/12/10 15:53:51;;;;;;;15.07;2.35;;;;;;;;;;5097266;28;20024;-72
2021/12/10 15:56:17;;;;;;;14.43;1.80;;;;;;;;;;5096841;28;20024;-73
2021/12/10 15:58:44;;;;;;;13.85;2.58;;;;;;;;;;5096045;28;20027;-71
2021/12/10 16:01:15;;;;;;;12.27;2.20;;;;;;;;;;5099386;28;20032;-72
2021/12/10 16:03:49;;;;;;;13.45;3.00;;;;;;;;;;5102542;28;20100;-73
2021/12/10 16:06:16;;;;;;;10.55;3.00;;;;;;;;;;5091697;28;20024;-73
2021/12/10 16:08:43;;;;;;;10.68;3.80;;;;;;;;;;5091743;28;20032;-72
2021/12/10 16:11:11;;;;;;;18.38;6.95;;;;;;;;;;5100863;28;20036;-73
2021/12/10 16:13:39;;;;;;;12.52;4.75;;;;;;;;;;5094590;28;20031;-72
2021/12/10 16:16:06;;;;;;;15.95;4.45;;;;;;;;;;5092738;28;20027;-71
2021/12/10 16:18:36;;;;;;;10.85;2.60;;;;;;;;;;5102028;28;20027;-72
2021/12/10 16:21:09;;;;;;;10.93;2.13;;;;;;;;;;5099383;28;20036;-71
2021/12/10 16:23:37;;;;;;;7.38;2.30;;;;;;;;;;5104708;28;20071;-74
2021/12/10 16:26:07;;;;;;;39.42;19.80;;;;;;;;;;5099234;28;20020;-72
2021/12/10 16:28:33;;;;;;;14.07;5.85;;;;;;;;;;5101015;28;20026;-73
2021/12/10 16:31:03;;;;;;;11.45;5.70;;;;;;;;;;5099414;28;20035;-72
2021/12/10 16:33:33;;;;;;;9.85;4.55;;;;;;;;;;5098161;28;20035;-72
2021/12/10 16:35:59;;;;;;;11.27;3.15;;;;;;;;;;5095102;28;20033;-72
2021/12/10 16:38:26;;;;;;;16.10;2.90;;;;;;;;;;5092104;28;20117;-73
2021/12/10 16:40:55;;;;;;;8.88;2.17;;;;;;;;;;5085948;28;20690;-73
2021/12/10 16:43:24;;;;;;;8.00;1.85;;;;;;;;;;5093158;28;20040;-72
2021/12/10 16:45:52;;;;;;;7.03;1.67;;;;;;;;;;5090176;28;20456;-73
2021/12/10 16:48:33;;;;;;;8.20;1.60;;;;;;;;;;5081144;28;20028;-72
2021/12/10 16:51:01;;;;;;;5.35;1.92;;;;;;;;;;5089719;28;20040;-73
2021/12/10 16:53:41;;;;;;;14.63;3.42;;;;;;;;;;5097740;28;20406;-73
2021/12/10 16:56:09;;;;;;;12.77;4.97;;;;;;;;;;5092218;28;20395;-73
2021/12/10 16:58:36;;;;;;;14.65;4.60;;;;;;;;;;5093621;28;20035;-72
2021/12/10 17:01:05;;;;;;;8.68;3.15;;;;;;;;;;5095852;28;20031;-73
2021/12/10 17:03:35;;;;;;;8.80;2.17;;;;;;;;;;5093548;28;20031;-73
2021/12/10 17:06:04;;;;;;;11.63;2.08;;;;;;;;;;5078193;28;20031;-73
2021/12/10 17:08:33;;;;;;;11.35;2.53;;;;;;;;;;5074176;28;20035;-72
2021/12/10 17:11:01;;;;;;;9.05;1.85;;;;;;;;;;5075026;28;20040;-73
2021/12/10 17:13:31;;;;;;;14.55;2.42;;;;;;;;;;5077309;28;20420;-73
2021/12/10 17:15:58;;;;;;;10.77;2.42;;;;;;;;;;5074222;28;20031;-72
2021/12/10 17:18:27;;;;;;;10.75;2.40;;;;;;;;;;5078517;28;20026;-73
2021/12/10 17:21:02;;;;;;;11.35;2.40;;;;;;;;;;5081012;28;20102;-73
2021/12/10 17:23:28;;;;;;;11.88;3.03;;;;;;;;;;5084325;28;20085;-74
2021/12/10 17:25:56;;;;;;;12.13;2.25;;;;;;;;;;5089064;28;20037;-73
2021/12/10 17:28:24;;;;;;;10.32;1.90;;;;;;;;;;5087851;28;20512;-73
2021/12/10 17:30:56;;;;;;;11.00;2.20;;;;;;;;;;5083014;28;20036;-73
2021/12/10 17:33:25;;;;;;;13.15;2.95;;;;;;;;;;5085731;28;20103;-74
2021/12/10 17:35:56;;;;;;;17.10;3.20;;;;;;;;;;5088488;28;20067;-72
2021/12/10 17:38:22;;;;;;;15.63;2.78;;;;;;;;;;5089780;28;20089;-72
2021/12/10 17:40:51;;;;;;;11.13;3.67;;;;;;;;;;5096451;28;20038;-73
2021/12/10 17:43:19;;;;;;;19.88;4.22;;;;;;;;;;5095540;28;20525;-70
2021/12/10 17:45:47;;;;;;;15.00;3.40;;;;;;;;;;5089071;28;20031;-72
2021/12/10 17:48:13;;;;;;;14.07;2.75;;;;;;;;;;5082523;28;20397;-71
2021/12/10 17:50:44;;;;;;;14.07;2.58;;;;;;;;;;5096077;28;20047;-70
2021/12/10 17:53:10;;;;;;;;;;;;;;;;;;5084537;28;20062;-71
2021/12/10 17:55:37;;;;;;;14.38;3.58;;;;;;;;;;5084425;28;20366;-71
2021/12/10 17:58:09;;;;;;;26.27;6.53;;;;;;;;;;5097982;28;20028;-71
2021/12/10 18:00:38;;;;;;;39.75;11.25;;;;;;;;;;5094745;28;20054;-72
2021/12/10 18:03:15;;;;;;;79.35;35.15;;;;;;;;;;5096153;28;20043;-72
2021/12/10 18:05:42;;;;;;;35.13;12.93;;;;;;;;;;5096174;28;20041;-72
2021/12/10 18:08:10;;;;;;;28.70;8.23;;;;;;;;;;5082607;28;20019;-71
2021/12/10 18:10:39;;;;;;;25.35;5.95;;;;;;;;;;5081339;28;20408;-71
2021/12/10 18:13:07;;;;;;;22.50;4.75;;;;;;;;;;5092672;28;20019;-71
2021/12/10 18:15:39;;;;;;;19.45;3.72;;;;;;;;;;5083329;28;20062;-71
2021/12/10 18:18:11;;;;;;;20.38;4.10;;;;;;;;;;5076226;28;20081;-71
2021/12/10 18:20:43;;;;;;;15.98;3.35;;;;;;;;;;5076933;28;20031;-70
2021/12/10 18:23:11;;;;;;;20.38;3.53;;;;;;;;;;5084716;28;20040;-71
2021/12/10 18:25:48;;;;;;;16.60;3.25;;;;;;;;;;5084321;28;20028;-71
2021/12/10 18:28:17;;;;;;;21.70;3.78;;;;;;;;;;5079878;28;20012;-71
2021/12/10 18:30:49;;;;;;;19.00;4.07;;;;;;;;;;5087429;28;20059;-71
2021/12/10 18:33:16;;;;;;;15.43;4.13;;;;;;;;;;5088988;28;20024;-72
2021/12/10 18:35:45;;;;;;;18.25;3.60;;;;;;;;;;5091327;28;20367;-71
2021/12/10 18:38:11;;;;;;;15.15;4.18;;;;;;;;;;5090280;28;20418;-71
2021/12/10 18:40:42;;;;;;;18.05;3.40;;;;;;;;;;5094185;28;20501;-69
2021/12/10 18:43:10;;;;;;;15.10;3.25;;;;;;;;;;5096528;28;20032;-71
2021/12/10 18:45:44;;;;;;;21.92;3.28;;;;;;;;;;5098339;28;20036;-70
2021/12/10 18:48:12;;;;;;;18.63;3.13;;;;;;;;;;5094203;28;20020;-70
2021/12/10 18:50:41;;;;;;;19.38;4.05;;;;;;;;;;5099263;28;20023;-69
2021/12/10 18:53:08;;;;;;;17.98;4.43;;;;;;;;;;5094397;28;20024;-70
2021/12/10 18:55:37;;;;;;;19.27;4.03;;;;;;;;;;5096525;28;20490;-71
2021/12/10 18:58:05;;;;;;;12.00;3.13;;;;;;;;;;5102905;28;20032;-70
2021/12/10 19:00:37;;;;;;;20.75;3.17;;;;;;;;;;5092856;28;20490;-72
2021/12/10 19:03:04;;;;;;;17.40;3.65;;;;;;;;;;5079530;28;20028;-72
2021/12/10 19:05:34;;;;;;;17.92;3.65;;;;;;;;;;5090073;28;20059;-70
2021/12/10 19:08:01;;;;;;;16.85;3.58;;;;;;;;;;5086816;28;20124;-71
2021/12/10 19:10:32;;;;;;;24.73;3.95;;;;;;;;;;5087802;28;20107;-71
2021/12/10 19:13:04;;;;;;;20.80;3.42;;;;;;;;;;5089392;28;20028;-72
2021/12/10 19:15:33;;;;;;;14.73;3.45;;;;;;;;;;5085665;28;20112;-70
2021/12/10 19:18:01;;;;;;;17.98;4.88;;;;;;;;;;5090441;28;20086;-71
2021/12/10 19:20:46;;;;;;;16.65;4.20;;;;;;;;;;5103410;28;20024;-72
2021/12/10 19:23:15;;;;;;;28.85;4.88;;;;;;;;;;5100400;28;20490;-71
2021/12/10 19:25:44;;;;;;;19.05;4.15;;;;;;;;;;5096872;28;20505;-71
2021/12/10 19:28:14;;;;;;;21.23;4.72;;;;;;;;;;5097942;28;20035;-72
2021/12/10 19:30:47;;;;;;;26.60;4.97;;;;;;;;;;5086850;28;20066;-69
2021/12/10 19:33:18;;;;;;;20.58;5.60;;;;;;;;;;5080817;28;20032;-72
2021/12/10 19:35:56;;;;;;;22.60;5.10;;;;;;;;;;5090892;28;20510;-71
2021/12/10 19:38:25;;;;;;;24.13;4.05;;;;;;;;;;5096742;28;20020;-71
2021/12/10 19:40:55;;;;;;;27.08;6.10;;;;;;;;;;5100080;28;20403;-70
2021/12/10 19:43:21;;;;;;;;;;;;;;;;;;5101015;28;20048;-71
2021/12/10 19:45:51;;;;;;;19.75;4.65;;;;;;;;;;5099700;28;19914;-72
2021/12/10 19:48:20;;;;;;;22.52;4.35;;;;;;;;;;5094059;28;20044;-72
2021/12/10 19:50:49;;;;;;;13.13;3.88;;;;;;;;;;5090476;28;21809;-71
2021/12/10 19:53:24;;;;;;;25.27;4.05;;;;;;;;;;5089408;28;20030;-70
2021/12/10 19:55:50;;;;;;;16.17;3.40;;;;;;;;;;5087114;28;20475;-70
2021/12/10 19:58:18;;;;;;;20.02;3.53;;;;;;;;;;5089848;28;20047;-70
2021/12/10 20:00:57;;;;;;;26.25;3.97;;;;;;;;;;5092294;28;20047;-70
2021/12/10 20:03:35;;;;;;;16.88;3.38;;;;;;;;;;5087892;28;20035;-72
2021/12/10 20:06:11;;;;;;;21.80;4.35;;;;;;;;;;5093140;28;20032;-74
2021/12/10 20:08:44;;;;;;;19.30;3.60;;;;;;;;;;5073460;28;20111;-74
2021/12/10 20:11:19;;;;;;;23.50;3.83;;;;;;;;;;5088943;28;20697;-73
2021/12/10 20:13:48;;;;;;;18.13;3.53;;;;;;;;;;5088992;28;20036;-73
2021/12/10 20:16:18;;;;;;;20.48;3.83;;;;;;;;;;5086228;28;20020;-77
2021/12/10 20:18:49;;;;;;;22.77;3.03;;;;;;;;;;5086861;28;20080;-79
2021/12/10 20:21:24;;;;;;;20.80;3.92;;;;;;;;;;5085498;28;20027;-77
2021/12/10 20:24:01;;;;;;;21.75;3.38;;;;;;;;;;5085850;28;20067;-74
2021/12/10 20:26:30;;;;;;;21.90;3.70;;;;;;;;;;5083580;28;20483;-74
2021/12/10 20:29:00;;;;;;;20.77;4.13;;;;;;;;;;5086582;28;20028;-71
2021/12/10 20:31:33;;;;;;;18.90;3.20;;;;;;;;;;5091050;28;20422;-71
2021/12/10 20:34:05;;;;;;;21.45;3.30;;;;;;;;;;5092110;28;20055;-72
2021/12/10 20:36:35;;;;;;;10.23;2.78;;;;;;;;;;5081083;28;20518;-70
2021/12/10 20:39:06;;;;;;;19.50;2.78;;;;;;;;;;5084646;28;20036;-72
2021/12/10 20:41:35;;;;;;;15.32;3.20;;;;;;;;;;5083206;28;20026;-71
2021/12/10 20:44:03;;;;;;;15.98;3.00;;;;;;;;;;5083891;28;20051;-71
2021/12/10 20:46:33;;;;;;;12.63;2.30;;;;;;;;;;5081143;28;20028;-72
2021/12/10 20:49:11;;;;;;;19.10;3.17;;;;;;;;;;5083957;28;20520;-72
2021/12/10 20:51:41;;;;;;;9.35;2.17;;;;;;;;;;5088538;28;20074;-71
2021/12/10 20:54:11;;;;;;;14.65;2.58;;;;;;;;;;5087222;28;20491;-71
2021/12/10 20:56:47;;;;;;;20.25;2.78;;;;;;;;;;5095722;28;20099;-72
2021/12/10 20:59:17;;;;;;;16.83;2.45;;;;;;;;;;5092564;28;20040;-72
2021/12/10 21:01:47;;;;;;;13.73;2.50;;;;;;;;;;5085139;28;20024;-73
2021/12/10 21:04:16;;;;;;;22.37;3.17;;;;;;;;;;5084698;28;20069;-74
2021/12/10 21:06:45;;;;;;;16.92;3.05;;;;;;;;;;5089681;28;20270;-72
2021/12/10 21:09:13;;;;;;;13.35;3.00;;;;;;;;;;5085979;28;20047;-72
2021/12/10 21:11:48;;;;;;;22.13;3.03;;;;;;;;;;5092388;28;20049;-67
2021/12/10 21:14:17;;;;;;;17.80;3.25;;;;;;;;;;5104503;28;20031;-69
2021/12/10 21:16:47;;;;;;;15.50;3.22;;;;;;;;;;5094804;28;20028;-69
2021/12/10 21:19:19;;;;;;;24.58;3.63;;;;;;;;;;5091547;28;20012;-71
2021/12/10 21:21:54;;;;;;;17.65;2.97;;;;;;;;;;5090647;28;20452;-69
2021/12/10 21:24:23;;;;;;;22.83;3.33;;;;;;;;;;5084320;28;20033;-71
2021/12/10 21:26:53;;;;;;;20.83;3.60;;;;;;;;;;5088160;28;20028;-70
2021/12/10 21:29:30;;;;;;;23.40;4.10;;;;;;;;;;5090897;28;20496;-68
2021/12/10 21:32:05;;;;;;;22.73;4.35;;;;;;;;;;5076725;28;20052;-69
2021/12/10 21:34:37;;;;;;;31.35;7.78;;;;;;;;;;5080178;28;20435;-71
2021/12/10 21:39:41;;;;;;;59.53;26.65;;;;;;;;;;5091274;28;20039;-70
2021/12/10 21:42:08;;;;;;;71.18;29.40;;;;;;;;;;5095031;28;20593;-70
2021/12/10 21:44:35;;;;;;;64.43;23.33;;;;;;;;;;5089590;28;20048;-69
2021/12/10 21:47:22;;;;;;;129.52;52.28;;;;;;;;;;5091431;28;20103;-69
2021/12/10 21:49:50;;;;;;;79.32;30.58;;;;;;;;;;5089665;28;20027;-69
2021/12/10 21:52:20;;;;;;;97.22;36.70;;;;;;;;;;5099539;28;20024;-68
2021/12/10 21:54:48;;;;;;;144.57;59.05;;;;;;;;;;5086145;28;20404;-68
2021/12/10 21:57:20;;;;;;;125.65;54.13;;;;;;;;;;5088075;28;20024;-71
2021/12/10 21:59:48;;;;;;;100.18;43.20;;;;;;;;;;5094611;28;20032;-70
2021/12/10 22:02:27;;;;;;;122.70;50.75;;;;;;;;;;5096496;28;20380;-71
2021/12/10 22:04:59;;;;;;;175.30;67.38;;;;;;;;;;5093750;28;20517;-70
2021/12/10 22:07:45;;;;;;;69.10;26.67;;;;;;;;;;5097967;28;20486;-70
2021/12/10 22:10:21;;;;;;;40.20;13.63;;;;;;;;;;5097476;28;20031;-71
2021/12/10 22:13:06;;;;;;;42.05;9.75;;;;;;;;;;5094001;28;20038;-69
2021/12/10 22:15:38;;;;;;;35.60;10.75;;;;;;;;;;5095301;28;20210;-69
2021/12/10 22:18:17;;;;;;;50.67;20.42;;;;;;;;;;5094838;28;20059;-71
2021/12/10 22:20:48;;;;;;;26.17;6.78;;;;;;;;;;5110809;27;20525;-69
2021/12/10 22:23:15;;;;;;;23.23;4.97;;;;;;;;;;5099282;28;20468;-70
2021/12/10 22:25:46;;;;;;;18.00;4.50;;;;;;;;;;5088258;28;20024;-70
2021/12/10 22:28:18;;;;;;;21.33;3.05;;;;;;;;;;5095806;28;20027;-71
2021/12/10 22:30:47;;;;;;;21.50;3.15;;;;;;;;;;5071478;28;20035;-72
2021/12/10 22:33:39;;;;;;;25.80;4.35;;;;;;;;;;5079304;28;20042;-72
2021/12/10 22:36:14;;;;;;;27.58;3.95;;;;;;;;;;5065911;28;20472;-71
2021/12/10 22:38:46;;;;;;;19.10;3.50;;;;;;;;;;5086970;28;20368;-71
2021/12/10 22:41:13;;;;;;;19.50;3.67;;;;;;;;;;5088629;28;20085;-70
2021/12/10 22:43:45;;;;;;;24.00;3.42;;;;;;;;;;5086200;28;20091;-71
2021/12/10 22:46:14;;;;;;;15.27;2.85;;;;;;;;;;5087843;28;20038;-72
2021/12/10 22:48:46;;;;;;;20.65;3.10;;;;;;;;;;5097388;28;20027;-70
2021/12/10 22:51:26;;;;;;;24.33;3.95;;;;;;;;;;5093422;28;20394;-73
2021/12/10 22:53:55;;;;;;;21.67;3.53;;;;;;;;;;5095191;28;20566;-71
2021/12/10 22:56:27;;;;;;;23.75;4.03;;;;;;;;;;5095146;28;20030;-71
2021/12/10 22:58:57;;;;;;;20.88;3.70;;;;;;;;;;5094524;28;20032;-70
2021/12/10 23:01:24;;;;;;;;;;;;;;;;;;5098910;28;20031;-72
2021/12/10 23:03:56;;;;;;;18.02;3.03;;;;;;;;;;5098907;28;19927;-71
2021/12/10 23:06:22;;;;;;;21.85;3.63;;;;;;;;;;5096396;28;20035;-71
2021/12/10 23:11:39;;;;;;;20.70;3.22;;;;;;;;;;5094687;28;20525;-71
2021/12/10 23:14:09;;;;;;;12.98;2.85;;;;;;;;;;5094738;28;20027;-69
2021/12/10 23:16:48;;;;;;;15.77;2.55;;;;;;;;;;5093282;28;20032;-69
2021/12/10 23:19:17;;;;;;;22.77;3.15;;;;;;;;;;5100531;28;20526;-68
